Time;durP1;ratioP1;P1;durP2;ratioP2;P2;SDS_P1;SDS_P2;PMS_P1;PMS_P2;Temp;Humidity;BMP_temperature;BMP_pressure;BME280_temperature;BME280_humidity;BME280_pressure;Samples;Min_cycle;Max_cycle;Signal;HPM_P1;HPM_P2
2023/02/27 00:01:53;;;;;;;20.30;7.00;;;;;;;-0.71;69.63;99444.21;104784;1262;109957;-77
2023/02/27 00:04:20;;;;;;;21.20;8.40;;;;;;;-0.71;69.71;99446.83;105020;1262;100834;-75
2023/02/27 00:06:48;;;;;;;20.10;7.60;;;;;;;-0.72;69.83;99447.89;104861;1260;107702;-76
2023/02/27 00:09:16;;;;;;;18.80;7.40;;;;;;;-0.69;70.10;99448.88;104913;1264;96915;-75
2023/02/27 00:11:44;;;;;;;15.50;6.20;;;;;;;-0.67;70.06;99451.61;104622;1263;97355;-76
2023/02/27 00:14:12;;;;;;;22.40;8.70;;;;;;;-0.67;69.99;99442.57;104774;1263;109936;-77
2023/02/27 00:16:40;;;;;;;26.60;9.80;;;;;;;-0.69;69.94;99446.98;104770;1264;100774;-76
2023/02/27 00:19:08;;;;;;;28.80;9.80;;;;;;;-0.71;69.71;99449.27;104677;1263;107362;-76
2023/02/27 00:21:36;;;;;;;37.20;11.80;;;;;;;-0.71;69.91;99452.39;104877;1263;96684;-76
2023/02/27 00:24:05;;;;;;;37.10;12.20;;;;;;;-0.70;69.78;99448.91;104563;1263;97411;-76
2023/02/27 00:26:32;;;;;;;41.10;14.10;;;;;;;-0.72;69.87;99443.36;104976;1263;110373;-77
2023/02/27 00:29:00;;;;;;;27.00;10.00;;;;;;;-0.75;69.66;99445.50;104525;1273;100882;-76
2023/02/27 00:31:29;;;;;;;22.70;7.90;;;;;;;-0.77;69.78;99439.61;104678;1274;109100;-74
2023/02/27 00:33:57;;;;;;;22.70;8.40;;;;;;;-0.79;69.64;99444.55;104731;1263;96625;-76
2023/02/27 00:36:25;;;;;;;19.90;6.60;;;;;;;-0.80;69.30;99439.50;104954;1264;97036;-76
2023/02/27 00:38:53;;;;;;;16.00;5.50;;;;;;;-0.82;69.33;99432.77;104471;1261;109893;-75
2023/02/27 00:41:21;;;;;;;13.70;4.50;;;;;;;-0.85;69.05;99439.09;104616;1263;100897;-76
2023/02/27 00:43:49;;;;;;;11.90;4.20;;;;;;;-0.87;69.39;99441.58;105151;1262;107639;-77
2023/02/27 00:46:18;;;;;;;13.10;4.40;;;;;;;-0.86;69.37;99448.70;104781;1271;96677;-76
2023/02/27 00:48:46;;;;;;;14.30;5.20;;;;;;;-0.87;69.25;99445.58;104781;1263;96702;-77
2023/02/27 00:51:14;;;;;;;16.50;4.00;;;;;;;-0.87;69.25;99441.58;105104;1263;109886;-76
2023/02/27 00:53:42;;;;;;;14.30;4.90;;;;;;;-0.86;69.27;99443.83;104683;1271;100549;-78
2023/02/27 00:56:09;;;;;;;11.30;4.30;;;;;;;-0.85;69.11;99441.89;104934;1273;107245;-75
2023/02/27 00:58:38;;;;;;;15.00;4.40;;;;;;;-0.86;69.25;99449.21;104583;1263;97081;-77
2023/02/27 01:01:06;;;;;;;12.20;4.50;;;;;;;-0.86;68.86;99448.36;105013;1261;97128;-77
2023/02/27 01:03:34;;;;;;;13.80;4.60;;;;;;;-0.87;69.28;99443.31;104957;1263;109907;-76
2023/02/27 01:06:02;;;;;;;13.50;4.80;;;;;;;-0.85;68.82;99443.11;105037;1262;100743;-77
2023/02/27 01:08:30;;;;;;;13.70;4.80;;;;;;;-0.87;68.40;99442.45;104817;1271;106664;-77
2023/02/27 01:10:57;;;;;;;20.10;6.50;;;;;;;-0.89;68.66;99440.05;104818;1271;97856;-77
2023/02/27 01:13:25;;;;;;;19.60;7.40;;;;;;;-0.91;68.98;99439.55;104756;1261;97079;-76
2023/02/27 01:15:53;;;;;;;19.20;6.80;;;;;;;-0.92;68.83;99443.05;104730;1264;109503;-75
2023/02/27 01:18:21;;;;;;;14.50;5.10;;;;;;;-0.92;69.00;99445.31;104984;1262;100654;-75
2023/02/27 01:20:53;;;;;;;18.70;5.80;;;;;;;-0.91;69.03;99446.70;104865;1264;107627;-76
2023/02/27 01:23:22;;;;;;;15.70;4.80;;;;;;;-0.88;69.17;99448.91;104792;1263;96634;-75
2023/02/27 01:25:50;;;;;;;14.80;4.60;;;;;;;-0.90;68.39;99452.25;104735;1261;97097;-75
2023/02/27 01:28:19;;;;;;;16.90;4.80;;;;;;;-0.93;68.78;99446.37;104787;1260;110300;-76
2023/02/27 01:30:47;;;;;;;13.00;4.50;;;;;;;-0.91;68.93;99445.14;104910;1263;100954;-76
2023/02/27 01:33:15;;;;;;;11.90;4.30;;;;;;;-0.91;68.40;99451.93;104629;1274;107201;-75
2023/02/27 01:35:43;;;;;;;10.90;4.30;;;;;;;-0.91;68.59;99465.50;104949;1261;97916;-76
2023/02/27 01:38:12;;;;;;;14.60;4.30;;;;;;;-0.90;68.90;99460.44;104752;1271;97092;-76
2023/02/27 01:40:41;;;;;;;13.80;4.30;;;;;;;-0.92;68.32;99462.02;104817;1263;110341;-76
2023/02/27 01:43:20;;;;;;;13.40;3.70;;;;;;;-0.94;68.20;99456.34;104752;1263;101087;-77
2023/02/27 01:45:49;;;;;;;13.10;4.40;;;;;;;-0.97;68.20;99461.24;104628;1263;106356;-75
2023/02/27 01:48:26;;;;;;;15.00;4.80;;;;;;;-0.95;68.28;99462.27;104620;1261;98191;-74
2023/02/27 01:51:10;;;;;;;9.20;3.80;;;;;;;-0.94;68.34;99463.11;104612;1269;97097;-75
2023/02/27 01:53:40;;;;;;;13.30;4.50;;;;;;;-0.93;68.25;99465.71;104749;1263;108540;-76
2023/02/27 01:56:35;;;;;;;13.00;4.00;;;;;;;-0.94;68.36;99464.67;104818;1264;102060;-76
2023/02/27 01:59:06;;;;;;;14.70;4.30;;;;;;;-0.92;68.63;99464.45;104597;1265;107121;-75
2023/02/27 02:01:37;;;;;;;13.80;4.30;;;;;;;-0.91;68.29;99464.27;105137;1263;97431;-75
2023/02/27 02:04:09;;;;;;;12.60;4.00;;;;;;;-0.90;68.13;99464.44;104925;1263;97100;-75
2023/02/27 02:06:41;;;;;;;11.30;3.70;;;;;;;-0.91;68.01;99467.58;104914;1263;108722;-75
2023/02/27 02:09:10;;;;;;;12.20;4.00;;;;;;;-0.91;67.97;99471.25;104733;1261;100805;-75
2023/02/27 02:11:39;;;;;;;12.30;4.30;;;;;;;-0.90;68.16;99469.13;104765;1271;107246;-75
2023/02/27 02:14:09;;;;;;;10.90;3.70;;;;;;;-0.86;68.20;99471.85;105276;1260;96584;-76
2023/02/27 02:17:05;;;;;;;9.20;3.80;;;;;;;-0.86;68.03;99480.05;104864;1260;96594;-76
2023/02/27 02:19:51;;;;;;;9.20;3.50;;;;;;;-0.86;68.00;99481.77;104848;1260;109892;-75
2023/02/27 02:22:34;;;;;;;9.50;3.40;;;;;;;-0.86;67.98;99485.80;104824;1274;100971;-74
2023/02/27 02:25:27;;;;;;;11.50;4.10;;;;;;;-0.85;68.02;99486.28;104664;1262;107713;-76
2023/02/27 02:28:22;;;;;;;9.20;3.60;;;;;;;-0.85;68.06;99491.50;104612;1265;96734;-76
2023/02/27 02:31:12;;;;;;;12.90;4.20;;;;;;;-0.82;68.14;99493.55;104880;1261;97103;-76
2023/02/27 02:33:46;;;;;;;10.10;3.70;;;;;;;-0.80;68.05;99501.66;104801;1273;109928;-76
2023/02/27 02:36:38;;;;;;;10.80;3.80;;;;;;;-0.78;68.12;99499.75;104820;1271;99662;-77
2023/02/27 02:39:21;;;;;;;12.10;4.10;;;;;;;-0.77;68.11;99498.31;104763;1263;107586;-74
2023/02/27 02:41:53;;;;;;;11.50;3.70;;;;;;;-0.75;67.97;99505.61;104777;1264;96590;-77
2023/02/27 02:44:36;;;;;;;10.10;3.40;;;;;;;-0.79;67.87;99507.75;104993;1262;98178;-77
2023/02/27 02:47:35;;;;;;;13.40;4.80;;;;;;;-0.80;67.75;99509.35;104877;1272;109882;-77
2023/02/27 02:50:18;;;;;;;14.90;5.50;;;;;;;-0.84;67.68;99506.64;104685;1263;100872;-79
2023/02/27 02:52:50;;;;;;;13.50;5.20;;;;;;;-0.84;67.57;99511.17;104775;1264;107256;-76
2023/02/27 02:55:31;;;;;;;13.60;5.00;;;;;;;-0.84;67.78;99507.88;104979;1263;96929;-75
2023/02/27 02:58:12;;;;;;;17.60;6.00;;;;;;;-0.82;67.85;99510.27;104737;1263;97151;-74
2023/02/27 03:00:58;;;;;;;16.20;5.40;;;;;;;-0.79;67.85;99509.15;104693;1271;109399;-75
2023/02/27 03:03:31;;;;;;;11.90;4.60;;;;;;;-0.76;67.83;99515.36;105180;1265;99172;-76
2023/02/27 03:06:26;;;;;;;12.30;4.60;;;;;;;-0.79;67.65;99518.55;105104;1262;107379;-77
2023/02/27 03:09:06;;;;;;;17.40;6.80;;;;;;;-0.80;67.70;99525.52;105094;1264;98068;-77
2023/02/27 03:11:39;;;;;;;17.50;6.80;;;;;;;-0.81;67.66;99529.04;104936;1261;97129;-76
2023/02/27 03:14:21;;;;;;;20.10;7.90;;;;;;;-0.80;67.91;99529.54;105159;1262;109408;-76
2023/02/27 03:16:53;;;;;;;19.70;8.80;;;;;;;-0.79;67.70;99532.31;104765;1260;100966;-76
2023/02/27 03:19:30;;;;;;;17.80;7.20;;;;;;;-0.80;67.73;99532.67;104783;1262;107482;-76
2023/02/27 03:22:06;;;;;;;19.60;7.90;;;;;;;-0.82;67.73;99532.55;105000;1260;96703;-77
2023/02/27 03:24:44;;;;;;;19.70;8.20;;;;;;;-0.82;67.74;99530.45;104897;1263;97953;-75
2023/02/27 03:27:18;;;;;;;21.30;7.90;;;;;;;-0.83;67.78;99536.05;105104;1263;109944;-74
2023/02/27 03:30:00;;;;;;;22.80;11.10;;;;;;;-0.87;67.73;99548.48;105016;1263;100897;-76
2023/02/27 03:36:03;;;;;;;21.40;8.50;;;;;;;-0.87;67.79;99555.98;104819;1262;97940;-76
2023/02/27 03:38:34;;;;;;;23.40;8.60;;;;;;;-0.86;67.81;99561.35;104888;1260;97564;-76
2023/02/27 03:41:29;;;;;;;20.80;7.90;;;;;;;-0.85;67.79;99557.17;104731;1260;110209;-76
2023/02/27 03:44:28;;;;;;;19.60;7.90;;;;;;;-0.90;67.71;99562.13;104889;1263;100884;-75
2023/02/27 03:46:56;;;;;;;20.30;7.70;;;;;;;-0.94;67.81;99560.08;107148;1260;107013;-76
2023/02/27 03:49:24;;;;;;;21.80;8.30;;;;;;;-0.93;67.93;99557.30;105062;1261;97155;-76
2023/02/27 03:51:52;;;;;;;22.20;8.50;;;;;;;-0.93;67.84;99554.31;105240;1263;97001;-76
2023/02/27 03:54:26;;;;;;;22.40;8.40;;;;;;;-0.91;67.78;99555.69;105262;1262;109865;-76
2023/02/27 03:57:03;;;;;;;20.80;8.50;;;;;;;-0.93;67.65;99554.51;105153;1262;100109;-76
2023/02/27 03:59:33;;;;;;;20.80;7.70;;;;;;;-0.95;67.47;99558.71;105282;1270;107567;-76
2023/02/27 04:02:03;;;;;;;19.00;7.00;;;;;;;-0.97;67.72;99563.98;104719;1260;97550;-76
2023/02/27 04:04:32;;;;;;;18.80;6.60;;;;;;;-0.97;67.61;99568.52;105063;1260;97110;-76
2023/02/27 04:07:21;;;;;;;16.70;5.70;;;;;;;-1.00;67.49;99569.77;104839;1263;109566;-76
2023/02/27 04:10:06;;;;;;;16.70;5.10;;;;;;;-1.04;67.31;99573.33;104747;1263;101017;-78
2023/02/27 04:12:46;;;;;;;17.40;5.10;;;;;;;-1.07;66.90;99575.80;104521;1264;107173;-77
2023/02/27 04:15:48;;;;;;;17.40;5.20;;;;;;;-1.08;67.27;99576.36;104805;1260;98388;-75
2023/02/27 04:18:36;;;;;;;12.40;4.60;;;;;;;-1.10;67.36;99576.04;104917;1259;97141;-75
2023/02/27 04:21:17;;;;;;;12.60;4.40;;;;;;;-1.10;67.15;99574.83;104539;1264;109935;-76
2023/02/27 04:24:00;;;;;;;13.10;4.80;;;;;;;-1.09;67.32;99578.98;104922;1262;100727;-76
2023/02/27 04:26:41;;;;;;;10.10;3.40;;;;;;;-1.09;67.06;99576.88;104667;1265;107693;-76
2023/02/27 04:29:19;;;;;;;10.40;3.50;;;;;;;-1.10;67.13;99579.33;104913;1262;96609;-76
2023/02/27 04:32:03;;;;;;;11.80;3.80;;;;;;;-1.10;67.21;99587.52;104638;1263;96650;-75
2023/02/27 04:34:31;;;;;;;9.50;3.30;;;;;;;-1.11;66.91;99592.77;104879;1262;109910;-77
2023/02/27 04:37:06;;;;;;;8.20;3.20;;;;;;;-1.13;66.44;99593.15;104625;1274;100646;-76
2023/02/27 04:39:50;;;;;;;8.70;3.00;;;;;;;-1.15;66.51;99596.31;104830;1275;107649;-76
2023/02/27 04:42:43;;;;;;;6.80;2.80;;;;;;;-1.15;66.66;99597.89;104900;1264;97943;-76
2023/02/27 04:45:16;;;;;;;9.60;2.60;;;;;;;-1.15;66.67;99603.79;105554;1259;97097;-75
2023/02/27 04:47:55;;;;;;;7.70;2.70;;;;;;;-1.15;66.42;99605.01;104680;1278;109907;-76
2023/02/27 04:50:29;;;;;;;8.30;3.00;;;;;;;-1.14;66.12;99606.05;104742;1260;100836;-75
2023/02/27 04:53:08;;;;;;;9.30;2.70;;;;;;;-1.13;66.39;99607.94;108212;1259;107674;-75
2023/02/27 04:55:43;;;;;;;6.30;2.20;;;;;;;-1.14;66.21;99607.44;106507;1260;96688;-76
2023/02/27 04:58:17;;;;;;;11.80;2.40;;;;;;;-1.15;66.32;99614.59;105302;1265;98002;-75
2023/02/27 05:00:53;;;;;;;6.40;2.40;;;;;;;-1.16;65.64;99616.33;108092;1261;109489;-76
2023/02/27 05:03:25;;;;;;;8.30;2.60;;;;;;;-1.14;65.86;99620.49;108108;1258;100954;-74
2023/02/27 05:05:58;;;;;;;9.30;2.60;;;;;;;-1.13;66.06;99622.39;107483;1260;108415;-76
2023/02/27 05:08:40;;;;;;;9.00;2.30;;;;;;;-1.13;65.32;99621.69;105426;1262;96601;-75
2023/02/27 05:11:23;;;;;;;6.20;2.20;;;;;;;-1.12;65.90;99624.46;105080;1264;97081;-76
2023/02/27 05:13:57;;;;;;;10.90;2.80;;;;;;;-1.10;65.63;99627.74;104986;1264;109942;-76
2023/02/27 05:16:34;;;;;;;;;;;;;;;-1.11;65.64;99626.19;104817;1261;100582;-76
2023/02/27 05:19:03;;;;;;;7.60;2.80;;;;;;;-1.14;65.21;99623.43;104809;1273;107573;-76
2023/02/27 05:21:35;;;;;;;8.90;2.70;;;;;;;-1.16;65.25;99624.70;104883;1264;97739;-75
2023/02/27 05:24:15;;;;;;;6.20;2.60;;;;;;;-1.16;65.27;99624.17;104849;1262;96985;-75
2023/02/27 05:27:20;;;;;;;5.60;2.60;;;;;;;-1.16;65.48;99627.13;104718;1262;109541;-74
2023/02/27 05:29:48;;;;;;;6.70;2.60;;;;;;;-1.17;64.82;99621.57;104673;1262;100859;-76
2023/02/27 05:32:28;;;;;;;7.20;2.60;;;;;;;-1.18;65.19;99626.98;104874;1273;106645;-76
2023/02/27 05:35:15;;;;;;;8.00;2.80;;;;;;;-1.18;65.13;99626.63;104685;1259;96712;-76
2023/02/27 05:38:03;;;;;;;9.10;2.90;;;;;;;-1.15;65.67;99628.69;104787;1263;97256;-75
2023/02/27 05:40:46;;;;;;;9.70;2.70;;;;;;;-1.13;65.19;99631.27;104746;1274;109765;-74
2023/02/27 05:43:27;;;;;;;10.60;2.90;;;;;;;-1.10;65.41;99632.60;104755;1265;100954;-72
2023/02/27 05:46:19;;;;;;;8.90;2.40;;;;;;;-1.07;65.41;99639.35;104899;1262;107496;-76
2023/02/27 05:48:53;;;;;;;8.80;2.90;;;;;;;-1.04;64.56;99642.44;104853;1263;96629;-76
2023/02/27 05:51:25;;;;;;;7.60;2.60;;;;;;;-1.02;65.05;99644.85;104891;1259;97089;-73
2023/02/27 05:54:09;;;;;;;5.90;2.50;;;;;;;-1.02;65.21;99647.98;104648;1260;109951;-76
2023/02/27 05:56:39;;;;;;;5.00;2.40;;;;;;;-1.01;65.10;99649.86;104851;1264;100629;-76
2023/02/27 05:59:28;;;;;;;5.90;2.70;;;;;;;-0.98;64.79;99651.56;104743;1281;107054;-76
2023/02/27 06:01:56;;;;;;;8.40;2.80;;;;;;;-0.97;65.02;99654.34;104875;1263;96627;-76
2023/02/27 06:04:24;;;;;;;6.40;2.80;;;;;;;-0.96;64.99;99653.63;105075;1259;97096;-76
2023/02/27 06:06:52;;;;;;;6.50;2.40;;;;;;;-0.92;65.04;99656.52;104721;1263;107723;-75
2023/02/27 06:09:20;;;;;;;8.30;2.60;;;;;;;-0.90;64.28;99655.61;104764;1261;100906;-73
2023/02/27 06:11:48;;;;;;;8.40;3.00;;;;;;;-0.92;64.07;99657.90;104775;1261;107577;-73
2023/02/27 06:14:16;;;;;;;9.10;2.60;;;;;;;-0.92;64.56;99653.38;105197;1262;96616;-76
2023/02/27 06:16:44;;;;;;;7.30;2.80;;;;;;;-0.90;64.64;99649.70;104795;1263;97096;-75
2023/02/27 06:19:12;;;;;;;8.60;2.70;;;;;;;-0.87;64.54;99652.79;105003;1259;109832;-74
2023/02/27 06:21:40;;;;;;;8.20;2.80;;;;;;;-0.84;64.47;99652.91;104977;1259;101159;-74
2023/02/27 06:24:07;;;;;;;11.80;4.00;;;;;;;-0.82;64.44;99653.22;104818;1258;107660;-73
2023/02/27 06:26:35;;;;;;;4.70;2.40;;;;;;;-0.79;64.54;99652.83;104695;1260;97135;-73
2023/02/27 06:29:03;;;;;;;11.80;2.70;;;;;;;-0.75;64.52;99651.88;104918;1260;97093;-73
2023/02/27 06:31:31;;;;;;;10.00;3.00;;;;;;;-0.69;64.61;99652.84;104957;1262;109453;-73
2023/02/27 06:33:59;;;;;;;7.50;2.90;;;;;;;-0.66;64.78;99652.80;104933;1264;100678;-73
2023/02/27 06:36:28;;;;;;;8.50;2.90;;;;;;;-0.60;64.47;99655.63;104863;1257;106213;-75
2023/02/27 06:38:56;;;;;;;11.70;3.20;;;;;;;-0.61;64.01;99660.88;104888;1262;96969;-75
2023/02/27 06:41:24;;;;;;;10.60;3.20;;;;;;;-0.60;64.37;99663.13;105116;1264;97068;-76
2023/02/27 06:43:54;;;;;;;12.60;4.70;;;;;;;-0.56;64.54;99666.38;104931;1262;109494;-71
2023/02/27 06:46:23;;;;;;;7.80;3.20;;;;;;;-0.54;64.37;99670.52;105032;1263;100929;-72
2023/02/27 06:48:51;;;;;;;7.30;2.80;;;;;;;-0.50;64.50;99674.61;104949;1263;107317;-71
2023/02/27 06:51:19;;;;;;;11.60;3.10;;;;;;;-0.48;64.17;99680.52;104926;1262;96700;-75
2023/02/27 06:53:47;;;;;;;13.10;3.70;;;;;;;-0.49;64.07;99684.55;104666;1263;97817;-74
2023/02/27 06:56:15;;;;;;;7.60;2.90;;;;;;;-0.50;63.91;99685.09;104620;1276;109931;-74
2023/02/27 06:58:42;;;;;;;9.80;2.80;;;;;;;-0.50;64.01;99687.86;104771;1265;100904;-73
2023/02/27 07:01:12;;;;;;;11.30;3.40;;;;;;;-0.47;64.00;99688.35;104898;1271;107239;-73
2023/02/27 07:03:40;;;;;;;9.30;3.40;;;;;;;-0.42;63.88;99695.23;104774;1267;96764;-74
2023/02/27 07:06:12;;;;;;;11.30;3.00;;;;;;;-0.41;63.77;99696.27;104913;1262;97838;-73
2023/02/27 07:08:40;;;;;;;13.50;3.80;;;;;;;-0.38;63.90;99697.23;104585;1261;110402;-73
2023/02/27 07:11:28;;;;;;;12.40;3.70;;;;;;;-0.34;63.78;99694.55;104672;1263;99508;-74
2023/02/27 07:13:56;;;;;;;12.70;3.90;;;;;;;-0.32;63.52;99696.45;104725;1262;107612;-73
2023/02/27 07:16:24;;;;;;;10.00;3.10;;;;;;;-0.32;63.50;99702.19;104798;1260;97826;-74
2023/02/27 07:18:52;;;;;;;7.60;2.80;;;;;;;-0.32;63.35;99704.27;105035;1262;96584;-73
2023/02/27 07:21:20;;;;;;;6.00;2.80;;;;;;;-0.30;63.15;99701.99;105098;1262;109119;-74
2023/02/27 07:23:48;;;;;;;9.70;3.30;;;;;;;-0.26;63.33;99706.27;104692;1262;100511;-74
2023/02/27 07:26:17;;;;;;;8.30;2.70;;;;;;;-0.21;63.45;99711.41;105326;1259;107649;-74
2023/02/27 07:28:45;;;;;;;9.00;2.90;;;;;;;-0.19;63.28;99717.64;105201;1259;96682;-74
2023/02/27 07:31:13;;;;;;;6.80;3.30;;;;;;;-0.19;62.97;99723.06;105154;1262;96582;-73
2023/02/27 07:33:41;;;;;;;9.90;3.90;;;;;;;-0.22;62.82;99719.44;105210;1260;108556;-74
2023/02/27 07:36:09;;;;;;;9.20;2.90;;;;;;;-0.22;63.20;99720.34;105095;1262;99714;-74
2023/02/27 07:38:37;;;;;;;10.50;3.10;;;;;;;-0.21;63.09;99719.24;104886;1265;107238;-74
2023/02/27 07:41:05;;;;;;;7.90;2.80;;;;;;;-0.24;62.95;99719.30;105084;1262;96593;-73
2023/02/27 07:43:34;;;;;;;10.10;2.90;;;;;;;-0.26;62.83;99721.08;104759;1260;96927;-73
2023/02/27 07:46:04;;;;;;;11.80;3.30;;;;;;;-0.26;62.79;99716.75;105099;1263;109389;-74
2023/02/27 07:48:33;;;;;;;10.00;3.70;;;;;;;-0.24;62.71;99716.52;104754;1265;99929;-74
2023/02/27 07:51:01;;;;;;;8.60;2.90;;;;;;;-0.21;62.10;99719.27;104908;1258;106627;-74
2023/02/27 07:53:28;;;;;;;12.20;3.30;;;;;;;-0.22;62.60;99716.84;104750;1262;96630;-77
2023/02/27 07:55:56;;;;;;;8.90;3.40;;;;;;;-0.21;62.69;99716.64;105050;1264;97832;-73
2023/02/27 07:58:24;;;;;;;10.80;3.50;;;;;;;-0.20;62.72;99715.05;104921;1260;109335;-74
2023/02/27 08:00:54;;;;;;;9.00;3.00;;;;;;;-0.20;62.53;99720.63;104862;1260;99808;-74
2023/02/27 08:03:21;;;;;;;10.20;3.10;;;;;;;-0.20;62.36;99719.77;104926;1262;107386;-74
2023/02/27 08:05:49;;;;;;;10.00;3.80;;;;;;;-0.15;62.22;99723.67;105144;1260;96624;-73
2023/02/27 08:08:17;;;;;;;7.30;2.70;;;;;;;-0.08;61.98;99727.75;104723;1262;96912;-75
2023/02/27 08:10:45;;;;;;;6.50;2.80;;;;;;;-0.07;61.58;99733.81;104750;1262;108385;-75
2023/02/27 08:13:14;;;;;;;8.30;3.00;;;;;;;-0.02;61.82;99735.84;104854;1260;100945;-73
2023/02/27 08:15:45;;;;;;;8.30;3.50;;;;;;;0.05;62.28;99739.87;104920;1264;106657;-74
2023/02/27 08:18:13;;;;;;;7.70;3.30;;;;;;;0.13;62.24;99741.30;104694;1263;96619;-75
2023/02/27 08:20:41;;;;;;;6.30;2.80;;;;;;;0.13;61.74;99744.10;104876;1259;96588;-75
2023/02/27 08:23:10;;;;;;;11.50;3.50;;;;;;;0.12;62.19;99747.95;105098;1259;109922;-73
2023/02/27 08:25:38;;;;;;;8.60;3.30;;;;;;;0.10;61.68;99749.89;105048;1263;101078;-74
2023/02/27 08:28:06;;;;;;;9.60;3.80;;;;;;;0.08;61.87;99752.37;105081;1262;106137;-73
2023/02/27 08:30:34;;;;;;;6.80;2.80;;;;;;;0.09;61.96;99753.77;104986;1260;97697;-73
2023/02/27 08:33:02;;;;;;;9.60;3.00;;;;;;;0.11;61.75;99750.40;105147;1262;97410;-75
2023/02/27 08:35:30;;;;;;;10.90;3.90;;;;;;;0.12;61.95;99750.38;104910;1260;109635;-74
2023/02/27 08:37:58;;;;;;;8.30;3.10;;;;;;;0.18;62.05;99749.58;105010;1258;100524;-72
2023/02/27 08:40:26;;;;;;;10.20;3.10;;;;;;;0.24;61.31;99751.03;105097;1258;105630;-76
2023/02/27 08:42:58;;;;;;;8.50;3.10;;;;;;;0.25;61.62;99755.52;105192;1259;97074;-75
2023/02/27 08:45:27;;;;;;;6.20;2.90;;;;;;;0.32;61.52;99759.27;104962;1262;97828;-76
2023/02/27 08:47:55;;;;;;;11.90;4.00;;;;;;;0.38;61.69;99758.97;105038;1260;109907;-74
2023/02/27 08:50:22;;;;;;;9.20;3.30;;;;;;;0.45;61.82;99762.83;105389;1262;101007;-71
2023/02/27 08:52:51;;;;;;;10.20;3.10;;;;;;;0.57;61.97;99762.59;104965;1266;107676;-71
2023/02/27 08:55:20;;;;;;;11.10;3.50;;;;;;;0.67;61.81;99768.86;105107;1264;96611;-72
2023/02/27 08:57:48;;;;;;;10.70;3.80;;;;;;;0.78;61.89;99770.89;105204;1258;97981;-71
2023/02/27 09:00:17;;;;;;;10.20;3.30;;;;;;;0.90;61.78;99772.91;104977;1260;109899;-74
2023/02/27 09:02:45;;;;;;;8.20;3.10;;;;;;;1.02;61.36;99769.84;105181;1259;100407;-76
2023/02/27 09:05:13;;;;;;;8.10;3.00;;;;;;;1.10;61.15;99771.08;104962;1260;107646;-75
2023/02/27 09:07:42;;;;;;;9.50;3.30;;;;;;;1.20;61.47;99776.27;105095;1262;96619;-75
2023/02/27 09:10:11;;;;;;;9.60;2.80;;;;;;;1.23;61.25;99780.41;104880;1265;98035;-75
2023/02/27 09:12:41;;;;;;;9.40;3.10;;;;;;;1.22;60.77;99783.38;105196;1263;109887;-76
2023/02/27 09:15:10;;;;;;;12.80;3.80;;;;;;;1.14;60.64;99787.40;105156;1262;99602;-77
2023/02/27 09:17:39;;;;;;;9.10;3.30;;;;;;;1.20;60.31;99792.52;104987;1264;107090;-74
2023/02/27 09:20:08;;;;;;;8.40;3.20;;;;;;;1.20;59.50;99798.98;104653;1262;267055;-75
2023/02/27 09:22:36;;;;;;;7.60;3.30;;;;;;;1.18;59.89;99799.20;105120;1262;96564;-74
2023/02/27 09:25:06;;;;;;;7.00;3.10;;;;;;;1.14;59.66;99802.60;105000;1260;109655;-75
2023/02/27 09:27:34;;;;;;;9.50;4.00;;;;;;;1.16;60.14;99801.67;104958;1262;100894;-74
2023/02/27 09:30:03;;;;;;;11.10;3.90;;;;;;;1.23;60.22;99807.66;105229;1260;106723;-73
2023/02/27 09:32:31;;;;;;;10.60;3.60;;;;;;;1.27;60.13;99811.41;105077;1260;97093;-75
2023/02/27 09:34:59;;;;;;;12.40;3.90;;;;;;;1.27;60.12;99812.09;104928;1259;96588;-75
2023/02/27 09:37:27;;;;;;;11.30;3.60;;;;;;;1.28;59.85;99817.15;104917;1262;109644;-77
2023/02/27 09:39:55;;;;;;;11.90;4.10;;;;;;;1.25;59.88;99817.02;105169;1260;100164;-73
2023/02/27 09:42:30;;;;;;;8.00;3.40;;;;;;;1.27;60.03;99818.04;105105;1262;107630;-75
2023/02/27 09:45:04;;;;;;;10.00;3.10;;;;;;;1.28;59.62;99825.18;104782;1264;96670;-76
2023/02/27 09:47:41;;;;;;;9.20;3.00;;;;;;;1.22;59.25;99829.54;105037;1264;96870;-73
2023/02/27 09:50:42;;;;;;;9.70;3.60;;;;;;;1.16;59.20;99828.42;105100;1262;109387;-74
2023/02/27 09:53:13;;;;;;;9.60;3.10;;;;;;;1.19;59.57;99835.86;105033;1257;100942;-75
2023/02/27 09:56:03;;;;;;;7.80;3.00;;;;;;;1.20;58.84;99833.58;104962;1271;107678;-80
2023/02/27 09:58:35;;;;;;;6.50;2.90;;;;;;;1.20;59.49;99836.71;105020;1261;96984;-76
2023/02/27 10:01:13;;;;;;;9.80;3.80;;;;;;;1.23;58.17;99839.78;105084;1262;97511;-74
2023/02/27 10:04:04;;;;;;;9.10;3.50;;;;;;;1.18;58.78;99837.66;105066;1260;109929;-74
2023/02/27 10:06:36;;;;;;;9.70;3.30;;;;;;;1.18;58.80;99840.25;105129;1260;100828;-74
2023/02/27 10:09:35;;;;;;;11.40;3.80;;;;;;;1.20;58.89;99840.75;104837;1262;107448;-75
2023/02/27 10:12:22;;;;;;;8.20;3.50;;;;;;;1.19;58.64;99844.41;105059;1264;96666;-75
2023/02/27 10:14:57;;;;;;;7.40;3.20;;;;;;;1.20;58.61;99844.40;105051;1260;97838;-76
2023/02/27 10:17:31;;;;;;;9.50;3.50;;;;;;;1.18;58.42;99845.48;105120;1260;109486;-79
2023/02/27 10:20:05;;;;;;;8.80;3.40;;;;;;;1.22;59.09;99846.46;105045;1258;100894;-76
2023/02/27 10:22:40;;;;;;;9.40;3.50;;;;;;;1.27;58.42;99848.25;104928;1278;107924;-74
2023/02/27 10:25:15;;;;;;;6.40;2.90;;;;;;;1.28;58.41;99847.21;104951;1262;96604;-73
2023/02/27 10:28:10;;;;;;;10.10;3.40;;;;;;;1.29;58.32;99845.77;104931;1265;96684;-74
2023/02/27 10:30:38;;;;;;;10.40;3.40;;;;;;;1.33;58.34;99848.33;104863;1260;109888;-74
2023/02/27 10:33:32;;;;;;;10.40;3.40;;;;;;;1.31;58.25;99849.41;104952;1259;100604;-75
2023/02/27 10:36:00;;;;;;;12.40;4.20;;;;;;;1.32;58.55;99847.63;104988;1274;107666;-77
2023/02/27 10:38:45;;;;;;;8.70;3.40;;;;;;;1.38;58.46;99851.36;105087;1262;97420;-78
2023/02/27 10:41:17;;;;;;;10.00;3.50;;;;;;;1.38;58.31;99847.88;104999;1260;96623;-77
2023/02/27 10:43:45;;;;;;;7.30;3.60;;;;;;;1.35;57.37;99852.13;104831;1262;109494;-77
2023/02/27 10:46:24;;;;;;;11.20;4.00;;;;;;;1.39;57.23;99850.64;105343;1262;99669;-76
2023/02/27 10:48:53;;;;;;;6.80;2.90;;;;;;;1.46;57.79;99851.50;104828;1263;107608;-76
2023/02/27 10:51:26;;;;;;;6.00;3.30;;;;;;;1.55;57.31;99848.36;104762;1262;97927;-78
2023/02/27 10:54:24;;;;;;;12.10;3.90;;;;;;;1.58;56.55;99846.19;104945;1262;97935;-77
2023/02/27 10:56:55;;;;;;;10.60;3.50;;;;;;;1.53;56.97;99846.30;104991;1260;110150;-75
2023/02/27 10:59:34;;;;;;;8.70;3.20;;;;;;;1.56;57.49;99846.94;104997;1264;100641;-74
2023/02/27 11:02:19;;;;;;;9.30;3.80;;;;;;;1.68;57.19;99846.66;104970;1263;106546;-74
2023/02/27 11:04:52;;;;;;;7.80;3.40;;;;;;;1.74;57.64;99843.01;104934;1263;96606;-75
2023/02/27 11:07:33;;;;;;;7.40;3.00;;;;;;;1.78;57.00;99848.51;105056;1262;97449;-75
2023/02/27 11:10:24;;;;;;;8.60;3.00;;;;;;;1.76;56.67;99847.50;104815;1260;108812;-76
2023/02/27 11:12:58;;;;;;;6.00;2.80;;;;;;;1.75;56.35;99845.80;105023;1260;99911;-78
2023/02/27 11:15:33;;;;;;;10.70;3.40;;;;;;;1.80;57.04;99843.75;105004;1262;107056;-75
2023/02/27 11:18:27;;;;;;;6.30;2.90;;;;;;;1.86;56.89;99847.96;104858;1265;96619;-76
2023/02/27 11:21:28;;;;;;;8.90;2.80;;;;;;;1.82;56.49;99847.35;104858;1262;96600;-76
2023/02/27 11:24:08;;;;;;;5.90;3.30;;;;;;;1.77;56.51;99844.85;105090;1260;109050;-76
2023/02/27 11:26:53;;;;;;;8.40;3.10;;;;;;;1.88;56.59;99848.27;104804;1263;100769;-76
2023/02/27 11:29:21;;;;;;;10.00;3.30;;;;;;;1.88;56.24;99847.91;104947;1260;107069;-76
2023/02/27 11:31:55;;;;;;;8.50;3.10;;;;;;;1.85;56.13;99845.19;104975;1263;96655;-75
2023/02/27 11:34:31;;;;;;;7.80;3.00;;;;;;;1.93;55.92;99850.42;104979;1262;96597;-72
2023/02/27 11:37:04;;;;;;;6.90;3.40;;;;;;;1.99;56.42;99847.33;104828;1278;109709;-72
2023/02/27 11:39:58;;;;;;;7.50;2.90;;;;;;;2.01;56.58;99849.91;105159;1260;100896;-72
2023/02/27 11:42:30;;;;;;;9.30;3.20;;;;;;;1.95;56.33;99854.23;104964;1260;106151;-74
2023/02/27 11:45:05;;;;;;;5.10;2.80;;;;;;;1.98;56.55;99849.27;104941;1264;96652;-72
2023/02/27 11:47:38;;;;;;;8.90;3.10;;;;;;;1.98;56.37;99854.32;104883;1263;96785;-75
2023/02/27 11:50:27;;;;;;;6.10;2.80;;;;;;;2.00;56.02;99855.67;104919;1264;108858;-76
2023/02/27 11:53:15;;;;;;;14.40;7.00;;;;;;;2.06;56.36;99856.92;105073;1273;101660;-76
2023/02/27 11:55:46;;;;;;;13.90;5.10;;;;;;;2.07;55.76;99852.87;104879;1265;106547;-74